Coastal Inspiration — CFN4970 — position and weather

sailwx.info

Track history (hours):
 
Tides and Currents Weather Stations Pressure Air Temp Water Temp Dewpoint Dewpoint Depression Visibility Wind Speed Wind Dir Waves Ship Positions

Coastal Inspiration

Last reported at 2016-Aug-24 07:33 UTC. Time now 2016-Aug-24 08:33 UTC.
Position N 49°12' W 123°53'.

Length 160 m; draft 6 m.

Type: Ship. MMSI: 316011408.

Date/timePositionNaut miles runAvg speedWind from/ knotsBaromVisibWave heightAir tempDewpointWater temp
2016-Aug-24 07:33N 49°12' W 123°53'1818.4
2016-Aug-24 06:33N 49°06' W 123°26'2 0.8
2016-Aug-24 04:33N 49°05' W 123°28'1717.1
2016-Aug-24 03:33N 49°10' W 123°53'4 3.7
2016-Aug-24 02:33N 49°13' W 123°50'2121.1
2016-Aug-24 01:33N 49°04' W 123°21'9 9.0
2016-Aug-24 00:34N 49°00' W 123°08'1717.1
2016-Aug-23 23:33N 49°08' W 123°32'1414.2
2016-Aug-23 22:33N 49°13' W 123°52'1 0.8
2016-Aug-23 21:34N 49°12' W 123°53'1919.3
2016-Aug-23 20:33N 49°06' W 123°25'1212.5
2016-Aug-23 19:33N 49°00' W 123°08'1111.4
2016-Aug-23 18:33N 49°03' W 123°25'2020.2
2016-Aug-23 17:33N 49°12' W 123°53'0 0.2
2016-Aug-23 16:33N 49°12' W 123°53'1818.5
2016-Aug-23 15:34N 49°06' W 123°26'1313.3
2016-Aug-23 14:33N 49°00' W 123°08'1111.3
2016-Aug-23 13:33N 49°03' W 123°25'1919.2
2016-Aug-23 12:34N 49°13' W 123°50'4 3.8
2016-Aug-23 11:32N 49°10' W 123°53'0 0.0
2016-Aug-23 10:31N 49°10' W 123°53'0 0.0
2016-Aug-23 09:31N 49°10' W 123°53'0 0.0
2016-Aug-23 08:31N 49°10' W 123°53'3 3.1
2016-Aug-23 07:33N 49°12' W 123°52'2120.5
2016-Aug-23 06:33N 49°05' W 123°22'1110.8
2016-Aug-23 05:34N 49°00' W 123°08'1716.9
2016-Aug-23 04:33N 49°07' W 123°32'1413.9
2016-Aug-23 03:31N 49°10' W 123°53'7 7.6
2016-Aug-23 02:33N 49°12' W 123°43'2221.8
2016-Aug-23 01:34N 49°01' W 123°14'1 1.5
2016-Aug-23 00:33N 49°00' W 123°12'2121.1
2016-Aug-22 23:33N 49°10' W 123°40'9 8.8
2016-Aug-22 22:33N 49°10' W 123°53'1211.6
2016-Aug-22 21:33N 49°10' W 123°36'2020.5
2016-Aug-22 20:33N 49°00' W 123°08'0 0.1
2016-Aug-22 19:33N 49°00' W 123°08'1212.3
2016-Aug-22 18:34N 49°04' W 123°26'1919.4
2016-Aug-22 17:34N 49°13' W 123°52'1 0.6
2016-Aug-22 16:33N 49°12' W 123°53'1918.6
2016-Aug-22 15:34N 49°06' W 123°26'1313.0
2016-Aug-22 14:32N 49°00' W 123°08'1212.3
2016-Aug-22 13:34N 49°04' W 123°25'1919.0
2016-Aug-22 12:33N 49°13' W 123°51'4 3.7
2016-Aug-22 11:32N 49°10' W 123°53'0 0.0
2016-Aug-22 10:32N 49°10' W 123°53'0 0.0
2016-Aug-22 09:31N 49°10' W 123°53'0 0.0
2016-Aug-22 08:31N 49°10' W 123°53'3 3.5
2016-Aug-22 07:34N 49°13' W 123°51'1918.7
2016-Aug-22 06:33N 49°05' W 123°24'1211.9
2016-Aug-22 05:33N 49°00' W 123°08'1514.9
2016-Aug-22 04:33N 49°06' W 123°29'1716.7
2016-Aug-22 03:33N 49°11' W 123°53'0 0.3
2016-Aug-22 02:33N 49°11' W 123°53'1919.0
2016-Aug-22 01:33N 49°06' W 123°26'1311.8
2016-Aug-22 00:29N 49°00' W 123°08'1314.6
2016-Aug-21 23:34N 49°05' W 123°27'1817.8
2016-Aug-21 22:33N 49°10' W 123°53'3 2.6
2016-Aug-21 21:33N 49°12' W 123°52'1919.4
2016-Aug-21 20:33N 49°05' W 123°25'1211.7
2016-Aug-21 19:31N 49°00' W 123°08'1313.5
2016-Aug-21 18:33N 49°05' W 123°27'1818.4
2016-Aug-21 17:34N 49°11' W 123°53'2 1.8
2016-Aug-21 16:33N 49°12' W 123°52'1717.5
2016-Aug-21 15:33N 49°06' W 123°27'1413.2
2016-Aug-21 14:31N 49°00' W 123°08'1212.1
2016-Aug-21 13:34N 49°03' W 123°25'1918.8
2016-Aug-21 12:33N 49°13' W 123°50'4 4.2
2016-Aug-21 11:32N 49°10' W 123°53'0 0.0
2016-Aug-21 10:32N 49°10' W 123°53'0 0.0
2016-Aug-21 09:28N 49°10' W 123°53'0 0.0
2016-Aug-21 08:33N 49°10' W 123°53'2 2.0
2016-Aug-21 07:33N 49°12' W 123°53'1717.2
2016-Aug-21 06:33N 49°07' W 123°28'1514.7
2016-Aug-21 05:33N 49°00' W 123°08'1010.2
2016-Aug-21 04:34N 49°03' W 123°23'1919.3
2016-Aug-21 03:34N 49°13' W 123°48'4 4.3
2016-Aug-21 02:33N 49°11' W 123°54'1817.7
2016-Aug-21 01:33N 49°06' W 123°27'1414.1
2016-Aug-21 00:33N 49°00' W 123°08'1413.9
2016-Aug-20 23:33N 49°05' W 123°28'1717.4
2016-Aug-20 22:33N 49°10' W 123°53'3 3.1
2016-Aug-20 21:33N 49°13' W 123°51'2020.2
2016-Aug-20 20:34N 49°05' W 123°23'1110.7
2016-Aug-20 19:33N 49°00' W 123°08'1212.4
2016-Aug-20 18:33N 49°04' W 123°26'1919.3
2016-Aug-20 17:33N 49°11' W 123°53'1 1.4
2016-Aug-20 16:33N 49°13' W 123°52'2019.9
2016-Aug-20 15:33N 49°07' W 123°23'1211.6
2016-Aug-20 14:33N 49°00' W 123°08'1212.1
2016-Aug-20 13:34N 49°04' W 123°25'1818.1
2016-Aug-20 12:34N 49°13' W 123°49'4 3.9
2016-Aug-20 11:28N 49°10' W 123°53'0 0.0
2016-Aug-20 10:28N 49°10' W 123°53'0 0.0
2016-Aug-20 09:30N 49°10' W 123°53'0 0.0
2016-Aug-20 08:30N 49°10' W 123°53'2 1.7
2016-Aug-20 07:34N 49°11' W 123°53'1717.1
2016-Aug-20 06:34N 49°07' W 123°28'1514.6
2016-Aug-20 05:33N 49°00' W 123°08'1111.1
2016-Aug-20 04:34N 49°03' W 123°24'2019.7
2016-Aug-20 03:34N 49°13' W 123°50'2 1.9
2016-Aug-20 02:34N 49°12' W 123°53'1919.2
2016-Aug-20 01:33N 49°06' W 123°25'1212.5
2016-Aug-20 00:34N 49°00' W 123°08'1211.5
2016-Aug-19 23:33N 49°04' W 123°25'2020.1
2016-Aug-19 22:33N 49°11' W 123°53'2 2.1
2016-Aug-19 21:33N 49°13' W 123°51'1919.1
2016-Aug-19 20:33N 49°05' W 123°24'1211.6
2016-Aug-19 19:33N 49°00' W 123°08'1212.3
2016-Aug-19 18:33N 49°04' W 123°26'1919.0
2016-Aug-19 17:33N 49°12' W 123°52'1 1.0
2016-Aug-19 16:34N 49°12' W 123°53'1918.7
2016-Aug-19 15:33N 49°06' W 123°26'1312.6
2016-Aug-19 14:31N 49°00' W 123°08'1313.2
2016-Aug-19 13:33N 49°04' W 123°26'1818.3
2016-Aug-19 12:33N 49°14' W 123°50'5 4.0
2016-Aug-19 11:25N 49°10' W 123°53'0 0.0
2016-Aug-19 10:31N 49°10' W 123°53'0 0.0
2016-Aug-19 09:24N 49°10' W 123°53'0 0.0
2016-Aug-19 08:33N 49°10' W 123°53'1 1.3
2016-Aug-19 07:33N 49°11' W 123°53'1717.3
2016-Aug-19 06:33N 49°06' W 123°28'1414.5
2016-Aug-19 05:34N 49°00' W 123°08'9 9.3
2016-Aug-19 04:33N 49°02' W 123°22'2019.9
2016-Aug-19 03:33N 49°13' W 123°48'4 3.6
2016-Aug-19 02:34N 49°12' W 123°53'1918.6
2016-Aug-19 01:34N 49°06' W 123°26'1313.2
2016-Aug-19 00:33N 49°00' W 123°08'1010.4
2016-Aug-18 23:33N 49°03' W 123°23'2121.2
2016-Aug-18 22:33N 49°12' W 123°53'1 0.5
2016-Aug-18 21:33N 49°12' W 123°52'1919.2
2016-Aug-18 20:34N 49°06' W 123°25'1212.2
2016-Aug-18 19:33N 49°00' W 123°08'1313.0
2016-Aug-18 18:34N 49°05' W 123°27'1818.3
2016-Aug-18 17:33N 49°10' W 123°53'5 4.6
2016-Aug-18 16:33N 49°13' W 123°48'1919.3
2016-Aug-18 15:34N 49°05' W 123°22'1010.3
2016-Aug-18 14:33N 49°00' W 123°08'1212.2
2016-Aug-18 13:33N 49°04' W 123°26'1818.4
2016-Aug-18 12:33N 49°13' W 123°50'3 3.4
2016-Aug-18 11:33N 49°10' W 123°53'0 0.0
2016-Aug-18 10:33N 49°10' W 123°53'0 0.0
2016-Aug-18 09:32N 49°10' W 123°53'0 0.0
2016-Aug-18 08:26N 49°10' W 123°53'2 2.2
2016-Aug-18 07:33N 49°12' W 123°53'1717.4
2016-Aug-18 06:33N 49°07' W 123°28'1514.6
2016-Aug-18 05:34N 49°00' W 123°08'1111.0
2016-Aug-18 04:34N 49°03' W 123°24'2120.7
2016-Aug-18 03:33N 49°12' W 123°53'3 2.9
2016-Aug-18 02:34N 49°13' W 123°48'1918.5
2016-Aug-18 01:34N 49°05' W 123°23'1110.9
2016-Aug-18 00:33N 49°00' W 123°08'1414.1
2016-Aug-17 23:33N 49°05' W 123°28'1717.1
2016-Aug-17 22:33N 49°10' W 123°53'4 4.3
2016-Aug-17 21:33N 49°13' W 123°49'1918.7
2016-Aug-17 20:34N 49°05' W 123°23'1111.2
2016-Aug-17 19:34N 49°00' W 123°08'1414.0
2016-Aug-17 18:33N 49°05' W 123°28'1717.3
2016-Aug-17 17:33N 49°10' W 123°53'5 4.6
2016-Aug-17 16:33N 49°13' W 123°48'1918.8
2016-Aug-17 15:33N 49°05' W 123°22'1110.6
2016-Aug-17 14:33N 49°00' W 123°08'1212.1
2016-Aug-17 13:33N 49°04' W 123°25'1818.2
2016-Aug-17 12:33N 49°13' W 123°49'5 4.3
2016-Aug-17 11:30N 49°10' W 123°53'0 0.0
2016-Aug-17 10:33N 49°10' W 123°53'0 0.0
2016-Aug-17 09:29N 49°10' W 123°53'0 0.0
2016-Aug-17 08:29N 49°10' W 123°53'3 3.4
2016-Aug-17 07:34N 49°13' W 123°52'1818.3
2016-Aug-17 06:33N 49°06' W 123°26'1312.8
2016-Aug-17 05:34N 49°00' W 123°08'1413.9
2016-Aug-17 04:33N 49°05' W 123°28'1717.4
2016-Aug-17 03:33N 49°10' W 123°53'3 3.1
2016-Aug-17 02:33N 49°13' W 123°51'1918.7
2016-Aug-17 01:33N 49°06' W 123°25'1212.4
2016-Aug-17 00:33N 49°00' W 123°08'1212.4
2016-Aug-16 23:33N 49°04' W 123°26'1919.2
2016-Aug-16 22:33N 49°11' W 123°53'2 2.1
2016-Aug-16 21:33N 49°13' W 123°51'1919.4
2016-Aug-16 20:33N 49°05' W 123°24'1111.5
2016-Aug-16 19:34N 49°00' W 123°08'1413.8
2016-Aug-16 18:33N 49°05' W 123°28'1817.8
2016-Aug-16 17:34N 49°11' W 123°53'3 2.9
2016-Aug-16 16:33N 49°13' W 123°50'1818.4
2016-Aug-16 15:34N 49°05' W 123°24'1211.9
2016-Aug-16 14:34N 49°00' W 123°08'1312.6
2016-Aug-16 13:33N 49°04' W 123°26'1818.0
2016-Aug-16 12:34N 49°13' W 123°50'4 3.7
2016-Aug-16 11:33N 49°10' W 123°53'0 0.0
2016-Aug-16 10:33N 49°10' W 123°53'0 0.0
2016-Aug-16 09:32N 49°10' W 123°53'0 0.0
2016-Aug-16 08:32N 49°10' W 123°53'2 2.4
2016-Aug-16 07:34N 49°12' W 123°53'2019.6
2016-Aug-16 06:33N 49°06' W 123°25'2 0.9
2016-Aug-16 04:33N 49°05' W 123°28'1817.5
2016-Aug-16 03:33N 49°10' W 123°53'5 4.7
2016-Aug-16 02:33N 49°13' W 123°48'2020.0
2016-Aug-16 01:33N 49°04' W 123°21'9 9.3
2016-Aug-16 00:33N 49°00' W 123°08'1312.9
2016-Aug-15 23:33N 49°04' W 123°27'1918.8
2016-Aug-15 22:33N 49°12' W 123°53'1 1.3
2016-Aug-15 21:31N 49°13' W 123°52'1919.5
2016-Aug-15 20:34N 49°06' W 123°25'1212.4
2016-Aug-15 19:33N 49°00' W 123°08'1110.6
2016-Aug-15 18:33N 49°03' W 123°24'2019.9
2016-Aug-15 17:33N 49°13' W 123°50'3 2.6
2016-Aug-15 16:33N 49°11' W 123°53'1817.7
2016-Aug-15 15:33N 49°07' W 123°27'1414.2
2016-Aug-15 14:33N 49°00' W 123°08'1211.7
2016-Aug-15 13:33N 49°04' W 123°25'2019.6
2016-Aug-15 12:33N 49°12' W 123°52'3 2.1
2016-Aug-15 11:14N 49°10' W 123°53'0 0.0
2016-Aug-15 10:31N 49°10' W 123°53'0 0.0
2016-Aug-15 09:31N 49°10' W 123°53'0 0.0
2016-Aug-15 08:32N 49°10' W 123°53'1 1.4
2016-Aug-15 07:34N 49°11' W 123°53'1818.1
2016-Aug-15 06:34N 49°06' W 123°27'2 0.9
2016-Aug-15 04:33N 49°05' W 123°27'1918.6
2016-Aug-15 03:33N 49°11' W 123°53'2 1.7
2016-Aug-15 02:33N 49°13' W 123°52'1918.9
2016-Aug-15 01:33N 49°06' W 123°25'1212.4
2016-Aug-15 00:33N 49°00' W 123°08'1211.9
2016-Aug-14 23:33N 49°04' W 123°25'2019.6
2016-Aug-14 22:33N 49°12' W 123°52'0 0.4
2016-Aug-14 21:33N 49°12' W 123°53'1919.1
2016-Aug-14 20:33N 49°07' W 123°25'1312.5
2016-Aug-14 19:31N 49°00' W 123°08'1010.1
2016-Aug-14 18:33N 49°02' W 123°22'2019.8
2016-Aug-14 17:33N 49°13' W 123°48'4 3.8
2016-Aug-14 16:33N 49°11' W 123°53'1817.5
2016-Aug-14 15:33N 49°07' W 123°27'1414.0
2016-Aug-14 14:33N 49°00' W 123°08'1211.8
2016-Aug-14 13:33N 49°04' W 123°25'1818.4
2016-Aug-14 12:33N 49°13' W 123°49'4 4.3
2016-Aug-14 11:32N 49°10' W 123°53'0 0.0
2016-Aug-14 10:31N 49°10' W 123°53'0 0.0
2016-Aug-14 09:31N 49°10' W 123°53'0 0.0
2016-Aug-14 08:30N 49°10' W 123°53'  
Track history (hours):
 
Tides and Currents Weather Stations Pressure Air Temp Water Temp Dewpoint Dewpoint Depression Visibility Wind Speed Wind Dir Waves Ship Positions

Coastal Inspiration

Last reported at 2016-Aug-24 07:33 UTC. Time now 2016-Aug-24 08:33 UTC.
Position N 49°12' W 123°53'.

Length 160 m; draft 6 m.

Type: Ship. MMSI: 316011408.

Date/timePositionNaut miles runAvg speedWind from/ knotsBaromVisibWave heightAir tempDewpointWater temp
2016-Aug-24 07:33N 49°12' W 123°53'1818.4
2016-Aug-24 06:33N 49°06' W 123°26'2 0.8
2016-Aug-24 04:33N 49°05' W 123°28'1717.1
2016-Aug-24 03:33N 49°10' W 123°53'4 3.7
2016-Aug-24 02:33N 49°13' W 123°50'2121.1
2016-Aug-24 01:33N 49°04' W 123°21'9 9.0
2016-Aug-24 00:34N 49°00' W 123°08'1717.1
2016-Aug-23 23:33N 49°08' W 123°32'1414.2
2016-Aug-23 22:33N 49°13' W 123°52'1 0.8
2016-Aug-23 21:34N 49°12' W 123°53'1919.3
2016-Aug-23 20:33N 49°06' W 123°25'1212.5
2016-Aug-23 19:33N 49°00' W 123°08'1111.4
2016-Aug-23 18:33N 49°03' W 123°25'2020.2
2016-Aug-23 17:33N 49°12' W 123°53'0 0.2
2016-Aug-23 16:33N 49°12' W 123°53'1818.5
2016-Aug-23 15:34N 49°06' W 123°26'1313.3
2016-Aug-23 14:33N 49°00' W 123°08'1111.3
2016-Aug-23 13:33N 49°03' W 123°25'1919.2
2016-Aug-23 12:34N 49°13' W 123°50'4 3.8
2016-Aug-23 11:32N 49°10' W 123°53'0 0.0
2016-Aug-23 10:31N 49°10' W 123°53'0 0.0
2016-Aug-23 09:31N 49°10' W 123°53'0 0.0
2016-Aug-23 08:31N 49°10' W 123°53'3 3.1
2016-Aug-23 07:33N 49°12' W 123°52'2120.5
2016-Aug-23 06:33N 49°05' W 123°22'1110.8
2016-Aug-23 05:34N 49°00' W 123°08'1716.9
2016-Aug-23 04:33N 49°07' W 123°32'1413.9
2016-Aug-23 03:31N 49°10' W 123°53'7 7.6
2016-Aug-23 02:33N 49°12' W 123°43'2221.8
2016-Aug-23 01:34N 49°01' W 123°14'1 1.5
2016-Aug-23 00:33N 49°00' W 123°12'2121.1
2016-Aug-22 23:33N 49°10' W 123°40'9 8.8
2016-Aug-22 22:33N 49°10' W 123°53'1211.6
2016-Aug-22 21:33N 49°10' W 123°36'2020.5
2016-Aug-22 20:33N 49°00' W 123°08'0 0.1
2016-Aug-22 19:33N 49°00' W 123°08'1212.3
2016-Aug-22 18:34N 49°04' W 123°26'1919.4
2016-Aug-22 17:34N 49°13' W 123°52'1 0.6
2016-Aug-22 16:33N 49°12' W 123°53'1918.6
2016-Aug-22 15:34N 49°06' W 123°26'1313.0
2016-Aug-22 14:32N 49°00' W 123°08'1212.3
2016-Aug-22 13:34N 49°04' W 123°25'1919.0
2016-Aug-22 12:33N 49°13' W 123°51'4 3.7
2016-Aug-22 11:32N 49°10' W 123°53'0 0.0
2016-Aug-22 10:32N 49°10' W 123°53'0 0.0
2016-Aug-22 09:31N 49°10' W 123°53'0 0.0
2016-Aug-22 08:31N 49°10' W 123°53'3 3.5
2016-Aug-22 07:34N 49°13' W 123°51'1918.7
2016-Aug-22 06:33N 49°05' W 123°24'1211.9
2016-Aug-22 05:33N 49°00' W 123°08'1514.9
2016-Aug-22 04:33N 49°06' W 123°29'1716.7
2016-Aug-22 03:33N 49°11' W 123°53'0 0.3
2016-Aug-22 02:33N 49°11' W 123°53'1919.0
2016-Aug-22 01:33N 49°06' W 123°26'1311.8
2016-Aug-22 00:29N 49°00' W 123°08'1314.6
2016-Aug-21 23:34N 49°05' W 123°27'1817.8
2016-Aug-21 22:33N 49°10' W 123°53'3 2.6
2016-Aug-21 21:33N 49°12' W 123°52'1919.4
2016-Aug-21 20:33N 49°05' W 123°25'1211.7
2016-Aug-21 19:31N 49°00' W 123°08'1313.5
2016-Aug-21 18:33N 49°05' W 123°27'1818.4
2016-Aug-21 17:34N 49°11' W 123°53'2 1.8
2016-Aug-21 16:33N 49°12' W 123°52'1717.5
2016-Aug-21 15:33N 49°06' W 123°27'1413.2
2016-Aug-21 14:31N 49°00' W 123°08'1212.1
2016-Aug-21 13:34N 49°03' W 123°25'1918.8
2016-Aug-21 12:33N 49°13' W 123°50'4 4.2
2016-Aug-21 11:32N 49°10' W 123°53'0 0.0
2016-Aug-21 10:32N 49°10' W 123°53'0 0.0
2016-Aug-21 09:28N 49°10' W 123°53'0 0.0
2016-Aug-21 08:33N 49°10' W 123°53'2 2.0
2016-Aug-21 07:33N 49°12' W 123°53'1717.2
2016-Aug-21 06:33N 49°07' W 123°28'1514.7
2016-Aug-21 05:33N 49°00' W 123°08'1010.2
2016-Aug-21 04:34N 49°03' W 123°23'1919.3
2016-Aug-21 03:34N 49°13' W 123°48'4 4.3
2016-Aug-21 02:33N 49°11' W 123°54'1817.7
2016-Aug-21 01:33N 49°06' W 123°27'1414.1
2016-Aug-21 00:33N 49°00' W 123°08'1413.9
2016-Aug-20 23:33N 49°05' W 123°28'1717.4
2016-Aug-20 22:33N 49°10' W 123°53'3 3.1
2016-Aug-20 21:33N 49°13' W 123°51'2020.2
2016-Aug-20 20:34N 49°05' W 123°23'1110.7
2016-Aug-20 19:33N 49°00' W 123°08'1212.4
2016-Aug-20 18:33N 49°04' W 123°26'1919.3
2016-Aug-20 17:33N 49°11' W 123°53'1 1.4
2016-Aug-20 16:33N 49°13' W 123°52'2019.9
2016-Aug-20 15:33N 49°07' W 123°23'1211.6
2016-Aug-20 14:33N 49°00' W 123°08'1212.1
2016-Aug-20 13:34N 49°04' W 123°25'1818.1
2016-Aug-20 12:34N 49°13' W 123°49'4 3.9
2016-Aug-20 11:28N 49°10' W 123°53'0 0.0
2016-Aug-20 10:28N 49°10' W 123°53'0 0.0
2016-Aug-20 09:30N 49°10' W 123°53'0 0.0
2016-Aug-20 08:30N 49°10' W 123°53'2 1.7
2016-Aug-20 07:34N 49°11' W 123°53'1717.1
2016-Aug-20 06:34N 49°07' W 123°28'1514.6
2016-Aug-20 05:33N 49°00' W 123°08'1111.1
2016-Aug-20 04:34N 49°03' W 123°24'2019.7
2016-Aug-20 03:34N 49°13' W 123°50'2 1.9
2016-Aug-20 02:34N 49°12' W 123°53'1919.2
2016-Aug-20 01:33N 49°06' W 123°25'1212.5
2016-Aug-20 00:34N 49°00' W 123°08'1211.5
2016-Aug-19 23:33N 49°04' W 123°25'2020.1
2016-Aug-19 22:33N 49°11' W 123°53'2 2.1
2016-Aug-19 21:33N 49°13' W 123°51'1919.1
2016-Aug-19 20:33N 49°05' W 123°24'1211.6
2016-Aug-19 19:33N 49°00' W 123°08'1212.3
2016-Aug-19 18:33N 49°04' W 123°26'1919.0
2016-Aug-19 17:33N 49°12' W 123°52'1 1.0
2016-Aug-19 16:34N 49°12' W 123°53'1918.7
2016-Aug-19 15:33N 49°06' W 123°26'1312.6
2016-Aug-19 14:31N 49°00' W 123°08'1313.2
2016-Aug-19 13:33N 49°04' W 123°26'1818.3
2016-Aug-19 12:33N 49°14' W 123°50'5 4.0
2016-Aug-19 11:25N 49°10' W 123°53'0 0.0
2016-Aug-19 10:31N 49°10' W 123°53'0 0.0
2016-Aug-19 09:24N 49°10' W 123°53'0 0.0
2016-Aug-19 08:33N 49°10' W 123°53'1 1.3
2016-Aug-19 07:33N 49°11' W 123°53'1717.3
2016-Aug-19 06:33N 49°06' W 123°28'1414.5
2016-Aug-19 05:34N 49°00' W 123°08'9 9.3
2016-Aug-19 04:33N 49°02' W 123°22'2019.9
2016-Aug-19 03:33N 49°13' W 123°48'4 3.6
2016-Aug-19 02:34N 49°12' W 123°53'1918.6
2016-Aug-19 01:34N 49°06' W 123°26'1313.2
2016-Aug-19 00:33N 49°00' W 123°08'1010.4
2016-Aug-18 23:33N 49°03' W 123°23'2121.2
2016-Aug-18 22:33N 49°12' W 123°53'1 0.5
2016-Aug-18 21:33N 49°12' W 123°52'1919.2
2016-Aug-18 20:34N 49°06' W 123°25'1212.2
2016-Aug-18 19:33N 49°00' W 123°08'1313.0
2016-Aug-18 18:34N 49°05' W 123°27'1818.3
2016-Aug-18 17:33N 49°10' W 123°53'5 4.6
2016-Aug-18 16:33N 49°13' W 123°48'1919.3
2016-Aug-18 15:34N 49°05' W 123°22'1010.3
2016-Aug-18 14:33N 49°00' W 123°08'1212.2
2016-Aug-18 13:33N 49°04' W 123°26'1818.4
2016-Aug-18 12:33N 49°13' W 123°50'3 3.4
2016-Aug-18 11:33N 49°10' W 123°53'0 0.0
2016-Aug-18 10:33N 49°10' W 123°53'0 0.0
2016-Aug-18 09:32N 49°10' W 123°53'0 0.0
2016-Aug-18 08:26N 49°10' W 123°53'2 2.2
2016-Aug-18 07:33N 49°12' W 123°53'1717.4
2016-Aug-18 06:33N 49°07' W 123°28'1514.6
2016-Aug-18 05:34N 49°00' W 123°08'1111.0
2016-Aug-18 04:34N 49°03' W 123°24'2120.7
2016-Aug-18 03:33N 49°12' W 123°53'3 2.9
2016-Aug-18 02:34N 49°13' W 123°48'1918.5
2016-Aug-18 01:34N 49°05' W 123°23'1110.9
2016-Aug-18 00:33N 49°00' W 123°08'1414.1
2016-Aug-17 23:33N 49°05' W 123°28'1717.1
2016-Aug-17 22:33N 49°10' W 123°53'4 4.3
2016-Aug-17 21:33N 49°13' W 123°49'1918.7
2016-Aug-17 20:34N 49°05' W 123°23'1111.2
2016-Aug-17 19:34N 49°00' W 123°08'1414.0
2016-Aug-17 18:33N 49°05' W 123°28'1717.3
2016-Aug-17 17:33N 49°10' W 123°53'5 4.6
2016-Aug-17 16:33N 49°13' W 123°48'1918.8
2016-Aug-17 15:33N 49°05' W 123°22'1110.6
2016-Aug-17 14:33N 49°00' W 123°08'1212.1
2016-Aug-17 13:33N 49°04' W 123°25'1818.2
2016-Aug-17 12:33N 49°13' W 123°49'5 4.3
2016-Aug-17 11:30N 49°10' W 123°53'0 0.0
2016-Aug-17 10:33N 49°10' W 123°53'0 0.0
2016-Aug-17 09:29N 49°10' W 123°53'0 0.0
2016-Aug-17 08:29N 49°10' W 123°53'3 3.4
2016-Aug-17 07:34N 49°13' W 123°52'1818.3
2016-Aug-17 06:33N 49°06' W 123°26'1312.8
2016-Aug-17 05:34N 49°00' W 123°08'1413.9
2016-Aug-17 04:33N 49°05' W 123°28'1717.4
2016-Aug-17 03:33N 49°10' W 123°53'3 3.1
2016-Aug-17 02:33N 49°13' W 123°51'1918.7
2016-Aug-17 01:33N 49°06' W 123°25'1212.4
2016-Aug-17 00:33N 49°00' W 123°08'1212.4
2016-Aug-16 23:33N 49°04' W 123°26'1919.2
2016-Aug-16 22:33N 49°11' W 123°53'2 2.1
2016-Aug-16 21:33N 49°13' W 123°51'1919.4
2016-Aug-16 20:33N 49°05' W 123°24'1111.5
2016-Aug-16 19:34N 49°00' W 123°08'1413.8
2016-Aug-16 18:33N 49°05' W 123°28'1817.8
2016-Aug-16 17:34N 49°11' W 123°53'3 2.9
2016-Aug-16 16:33N 49°13' W 123°50'1818.4
2016-Aug-16 15:34N 49°05' W 123°24'1211.9
2016-Aug-16 14:34N 49°00' W 123°08'1312.6
2016-Aug-16 13:33N 49°04' W 123°26'1818.0
2016-Aug-16 12:34N 49°13' W 123°50'4 3.7
2016-Aug-16 11:33N 49°10' W 123°53'0 0.0
2016-Aug-16 10:33N 49°10' W 123°53'0 0.0
2016-Aug-16 09:32N 49°10' W 123°53'0 0.0
2016-Aug-16 08:32N 49°10' W 123°53'2 2.4
2016-Aug-16 07:34N 49°12' W 123°53'2019.6
2016-Aug-16 06:33N 49°06' W 123°25'2 0.9
2016-Aug-16 04:33N 49°05' W 123°28'1817.5
2016-Aug-16 03:33N 49°10' W 123°53'5 4.7
2016-Aug-16 02:33N 49°13' W 123°48'2020.0
2016-Aug-16 01:33N 49°04' W 123°21'9 9.3
2016-Aug-16 00:33N 49°00' W 123°08'1312.9
2016-Aug-15 23:33N 49°04' W 123°27'1918.8
2016-Aug-15 22:33N 49°12' W 123°53'1 1.3
2016-Aug-15 21:31N 49°13' W 123°52'1919.5
2016-Aug-15 20:34N 49°06' W 123°25'1212.4
2016-Aug-15 19:33N 49°00' W 123°08'1110.6
2016-Aug-15 18:33N 49°03' W 123°24'2019.9
2016-Aug-15 17:33N 49°13' W 123°50'3 2.6
2016-Aug-15 16:33N 49°11' W 123°53'1817.7
2016-Aug-15 15:33N 49°07' W 123°27'1414.2
2016-Aug-15 14:33N 49°00' W 123°08'1211.7
2016-Aug-15 13:33N 49°04' W 123°25'2019.6
2016-Aug-15 12:33N 49°12' W 123°52'3 2.1
2016-Aug-15 11:14N 49°10' W 123°53'0 0.0
2016-Aug-15 10:31N 49°10' W 123°53'0 0.0
2016-Aug-15 09:31N 49°10' W 123°53'0 0.0
2016-Aug-15 08:32N 49°10' W 123°53'1 1.4
2016-Aug-15 07:34N 49°11' W 123°53'1818.1
2016-Aug-15 06:34N 49°06' W 123°27'2 0.9
2016-Aug-15 04:33N 49°05' W 123°27'1918.6
2016-Aug-15 03:33N 49°11' W 123°53'2 1.7
2016-Aug-15 02:33N 49°13' W 123°52'1918.9
2016-Aug-15 01:33N 49°06' W 123°25'1212.4
2016-Aug-15 00:33N 49°00' W 123°08'1211.9
2016-Aug-14 23:33N 49°04' W 123°25'2019.6
2016-Aug-14 22:33N 49°12' W 123°52'0 0.4
2016-Aug-14 21:33N 49°12' W 123°53'1919.1
2016-Aug-14 20:33N 49°07' W 123°25'1312.5
2016-Aug-14 19:31N 49°00' W 123°08'1010.1
2016-Aug-14 18:33N 49°02' W 123°22'2019.8
2016-Aug-14 17:33N 49°13' W 123°48'4 3.8
2016-Aug-14 16:33N 49°11' W 123°53'1817.5
2016-Aug-14 15:33N 49°07' W 123°27'1414.0
2016-Aug-14 14:33N 49°00' W 123°08'1211.8
2016-Aug-14 13:33N 49°04' W 123°25'1818.4
2016-Aug-14 12:33N 49°13' W 123°49'4 4.3
2016-Aug-14 11:32N 49°10' W 123°53'0 0.0
2016-Aug-14 10:31N 49°10' W 123°53'0 0.0
2016-Aug-14 09:31N 49°10' W 123°53'0 0.0
2016-Aug-14 08:30N 49°10' W 123°53'  

Dump ship's entire track history